Kungur, Russia
Current Conditions -  °F | °C
As of 7:00 AM on Monday 26 Jan 2015 (Local Time) from USPP Reporting Station
Overcast Overcast  
Wind Chill: -2°   Ceiling: 4800
Heat Index: 12°   Visibility: 6mi
Dew Point:   Wind: 11mph
Humidity: 79%   Direction: 230°SW
Pressure: 30.56"   Gusts: NA
Location:  57.43°N, 56.95°E
Report Text: USPP 260200Z 23005MPS 9999 BKN048 OVC070 M11/M14 Q1035 21090060NOSIG RMK QFE765/1020
Loading
Personal Weather Stations






























Interactive Weather Map New forecast layout! Learn more

10-Day Weather Forecast

Advertisements
Track Severe Weather on mobile